createdAt,value
2022-12-11T00:01:17.901Z,100818.22
2022-12-11T00:03:44.950Z,100818.91
2022-12-11T00:06:15.046Z,100813.69
2022-12-11T00:08:42.633Z,100811.56
2022-12-11T00:11:13.305Z,100816.56
2022-12-11T00:13:40.304Z,100820.41
2022-12-11T00:16:07.838Z,100820.66
2022-12-11T00:18:37.493Z,100817.75
2022-12-11T00:21:07.778Z,100810.09
2022-12-11T00:23:37.413Z,100816.28
2022-12-11T00:26:14.536Z,100810.94
2022-12-11T00:28:45.717Z,100794.84
2022-12-11T00:31:18.768Z,100805.50
2022-12-11T00:33:49.082Z,100798.84
2022-12-11T00:36:27.036Z,100794.72
2022-12-11T00:38:54.874Z,100797.97
2022-12-11T00:41:22.299Z,100810.34
2022-12-11T00:43:49.290Z,100812.75
2022-12-11T00:46:20.730Z,100814.88
2022-12-11T00:48:50.142Z,100814.25
2022-12-11T00:51:20.289Z,100816.56
2022-12-11T00:53:49.281Z,100812.94
2022-12-11T00:56:20.695Z,100817.19
2022-12-11T00:58:49.265Z,100819.88
2022-12-11T01:01:21.102Z,100812.53
2022-12-11T01:03:53.433Z,100821.25
2022-12-11T01:06:25.941Z,100821.81
2022-12-11T01:09:11.693Z,100827.50
2022-12-11T01:11:39.496Z,100830.91
2022-12-11T01:14:07.479Z,100822.56
2022-12-11T01:16:34.378Z,100826.75
2022-12-11T01:19:03.769Z,100831.06
2022-12-11T01:21:33.295Z,100827.78
2022-12-11T01:24:00.305Z,100829.69
2022-12-11T01:26:30.655Z,100821.69
2022-12-11T01:28:57.565Z,100828.75
2022-12-11T01:31:25.039Z,100826.81
2022-12-11T01:33:55.911Z,100827.47
2022-12-11T01:36:23.930Z,100833.91
2022-12-11T01:38:51.935Z,100833.66
2022-12-11T01:41:19.605Z,100834.13
2022-12-11T01:44:16.412Z,100833.22
2022-12-11T01:46:44.017Z,100836.63
2022-12-11T01:49:14.230Z,100836.66
2022-12-11T01:51:52.018Z,100828.19
2022-12-11T01:54:26.439Z,100827.84
2022-12-11T01:56:57.639Z,100827.25
2022-12-11T01:59:27.821Z,100822.16
2022-12-11T02:02:02.287Z,100820.38
2022-12-11T02:04:33.860Z,100821.78
2022-12-11T02:07:01.024Z,100826.22
2022-12-11T02:09:33.643Z,100828.28
2022-12-11T02:12:29.084Z,100820.38
2022-12-11T02:15:34.329Z,100822.56
2022-12-11T02:18:29.425Z,100817.84
2022-12-11T02:21:12.201Z,100821.03
2022-12-11T02:24:21.448Z,100822.28
2022-12-11T02:27:20.600Z,100813.78
2022-12-11T02:30:02.904Z,100824.88
2022-12-11T02:32:55.083Z,100816.78
2022-12-11T02:35:39.541Z,100823.59
2022-12-11T02:38:15.763Z,100814.88
2022-12-11T02:40:44.849Z,100811.44
2022-12-11T02:43:15.091Z,100819.25
2022-12-11T02:45:43.792Z,100813.91
2022-12-11T02:48:13.607Z,100815.63
2022-12-11T02:50:47.060Z,100815.53
2022-12-11T02:53:20.905Z,100815.53
2022-12-11T02:55:53.553Z,100811.66
2022-12-11T02:58:27.792Z,100816.53
2022-12-11T03:00:55.129Z,100820.75
2022-12-11T03:03:23.340Z,100816.50
2022-12-11T03:05:50.883Z,100819.69
2022-12-11T03:08:20.866Z,100816.81
2022-12-11T03:10:47.963Z,100827.72
2022-12-11T03:13:22.172Z,100818.19
2022-12-11T03:16:32.550Z,100818.91
2022-12-11T03:19:16.650Z,100822.97
2022-12-11T03:22:05.216Z,100821.59
2022-12-11T03:24:55.520Z,100819.53
2022-12-11T03:27:37.120Z,100822.91
2022-12-11T03:30:16.788Z,100819.31
2022-12-11T03:33:30.116Z,100820.19
2022-12-11T03:36:07.280Z,100820.66
2022-12-11T03:38:53.277Z,100812.94
2022-12-11T03:41:25.070Z,100818.31
2022-12-11T03:43:58.749Z,100813.63
2022-12-11T03:46:34.271Z,100812.13
2022-12-11T03:49:26.343Z,100808.84
2022-12-11T03:51:57.617Z,100808.66
2022-12-11T03:54:34.111Z,100808.44
2022-12-11T03:57:07.890Z,100809.56
2022-12-11T03:59:35.546Z,100805.28
2022-12-11T04:02:11.001Z,100805.47
2022-12-11T04:04:40.485Z,100802.84
2022-12-11T04:07:09.516Z,100800.78
2022-12-11T04:09:37.440Z,100813.53
2022-12-11T04:12:05.063Z,100804.13
2022-12-11T04:14:51.535Z,100808.19
2022-12-11T04:17:38.768Z,100809.63
2022-12-11T04:20:26.332Z,100801.72
2022-12-11T04:23:15.905Z,100796.47
2022-12-11T04:25:43.885Z,100798.38
2022-12-11T04:28:14.110Z,100798.31
2022-12-11T04:30:42.148Z,100801.28
2022-12-11T04:33:09.684Z,100806.47
2022-12-11T04:35:36.950Z,100806.00
2022-12-11T04:38:04.713Z,100806.63
2022-12-11T04:40:32.478Z,100806.00
2022-12-11T04:43:02.615Z,100805.16
2022-12-11T04:45:29.969Z,100804.75
2022-12-11T04:48:02.604Z,100805.59
2022-12-11T04:50:30.185Z,100802.59
2022-12-11T04:52:58.002Z,100804.28
2022-12-11T04:55:25.469Z,100809.78
2022-12-11T04:57:52.975Z,100817.41
2022-12-11T05:00:23.311Z,100808.81
2022-12-11T05:02:51.044Z,100806.09
2022-12-11T05:05:18.404Z,100798.84
2022-12-11T05:07:45.898Z,100796.03
2022-12-11T05:10:16.345Z,100794.16
2022-12-11T05:12:43.746Z,100794.50
2022-12-11T05:15:11.640Z,100790.06
2022-12-11T05:17:40.190Z,100785.38
2022-12-11T05:20:08.464Z,100782.44
2022-12-11T05:22:35.798Z,100780.94
2022-12-11T05:25:04.987Z,100781.88
2022-12-11T05:27:34.722Z,100781.88
2022-12-11T05:30:02.162Z,100785.00
2022-12-11T05:32:29.667Z,100784.25
2022-12-11T05:34:57.194Z,100787.09
2022-12-11T05:37:24.742Z,100781.97
2022-12-11T05:39:52.134Z,100783.59
2022-12-11T05:42:22.892Z,100779.22
2022-12-11T05:44:58.807Z,100780.16
2022-12-11T05:47:26.272Z,100781.97
2022-12-11T05:49:53.627Z,100791.66
2022-12-11T05:52:21.865Z,100784.63
2022-12-11T05:54:50.771Z,100772.09
2022-12-11T05:57:18.459Z,100783.78
2022-12-11T05:59:46.172Z,100787.88
2022-12-11T06:02:13.548Z,100780.34
2022-12-11T06:04:41.062Z,100788.25
2022-12-11T06:07:08.379Z,100790.91
2022-12-11T06:09:35.818Z,100798.59
2022-12-11T06:12:03.321Z,100798.13
2022-12-11T06:14:30.637Z,100797.94
2022-12-11T06:16:57.867Z,100805.94
2022-12-11T06:19:25.097Z,100801.16
2022-12-11T06:21:52.345Z,100802.78
2022-12-11T06:24:21.419Z,100808.38
2022-12-11T06:26:51.208Z,100800.03
2022-12-11T06:29:18.462Z,100807.44
2022-12-11T06:31:50.246Z,100805.25
2022-12-11T06:34:17.666Z,100794.84
2022-12-11T06:36:47.250Z,100800.78
2022-12-11T06:39:14.845Z,100802.97
2022-12-11T06:41:41.939Z,100799.25
2022-12-11T06:44:12.000Z,100801.22
2022-12-11T06:46:39.367Z,100798.47
2022-12-11T06:49:09.063Z,100798.19
2022-12-11T06:51:39.176Z,100795.47
2022-12-11T06:54:06.675Z,100789.94
2022-12-11T06:56:36.333Z,100797.66
2022-12-11T06:59:07.338Z,100808.97
2022-12-11T07:01:34.927Z,100805.53
2022-12-11T07:04:02.100Z,100815.03
2022-12-11T07:06:29.777Z,100815.72
2022-12-11T07:08:57.135Z,100823.13
2022-12-11T07:11:24.376Z,100817.50
2022-12-11T07:13:54.062Z,100827.00
2022-12-11T07:16:21.863Z,100828.91
2022-12-11T07:18:51.199Z,100826.91
2022-12-11T07:21:20.343Z,100835.34
2022-12-11T07:23:48.797Z,100832.13
2022-12-11T07:26:20.391Z,100833.00
2022-12-11T07:28:47.842Z,100830.06
2022-12-11T07:31:26.461Z,100829.69
2022-12-11T07:34:06.821Z,100826.44
2022-12-11T07:36:35.405Z,100821.88
2022-12-11T07:39:05.163Z,100822.38
2022-12-11T07:41:32.268Z,100813.16
2022-12-11T07:44:05.137Z,100818.66
2022-12-11T07:46:34.267Z,100821.78
2022-12-11T07:49:02.851Z,100814.25
2022-12-11T07:51:36.469Z,100819.59
2022-12-11T07:54:08.676Z,100810.03
2022-12-11T07:56:36.310Z,100813.47
2022-12-11T07:59:05.515Z,100810.75
2022-12-11T08:01:36.870Z,100812.09
2022-12-11T08:04:07.307Z,100806.41
2022-12-11T08:06:40.963Z,100803.81
2022-12-11T08:09:20.683Z,100810.81
2022-12-11T08:11:58.926Z,100803.78
2022-12-11T08:14:26.287Z,100818.47
2022-12-11T08:16:54.005Z,100817.50
2022-12-11T08:19:22.898Z,100815.53
2022-12-11T08:21:50.091Z,100817.41
2022-12-11T08:24:20.920Z,100808.56
2022-12-11T08:26:51.883Z,100814.63
2022-12-11T08:29:19.055Z,100816.19
2022-12-11T08:31:46.698Z,100817.56
2022-12-11T08:34:14.301Z,100816.38
2022-12-11T08:36:45.178Z,100814.28
2022-12-11T08:39:12.746Z,100814.91
2022-12-11T08:41:40.115Z,100812.56
2022-12-11T08:44:16.677Z,100811.78
2022-12-11T08:46:45.099Z,100807.88
2022-12-11T08:49:15.363Z,100801.22
2022-12-11T08:51:42.704Z,100797.03
2022-12-11T08:54:11.188Z,100797.59
2022-12-11T08:56:41.254Z,100791.09
2022-12-11T08:59:08.866Z,100800.78
2022-12-11T09:01:36.256Z,100801.19
2022-12-11T09:04:04.196Z,100797.59
2022-12-11T09:06:33.479Z,100787.72
2022-12-11T09:09:02.793Z,100793.06
2022-12-11T09:11:34.294Z,100795.50
2022-12-11T09:14:07.120Z,100794.25
2022-12-11T09:16:40.870Z,100797.63
2022-12-11T09:19:14.597Z,100794.25
2022-12-11T09:21:43.525Z,100798.19
2022-12-11T09:24:12.558Z,100796.47
2022-12-11T09:26:40.708Z,100800.72
2022-12-11T09:29:08.529Z,100798.19
2022-12-11T09:31:37.229Z,100798.50
2022-12-11T09:34:08.814Z,100795.44
2022-12-11T09:36:38.808Z,100788.63
2022-12-11T09:39:08.573Z,100796.09
2022-12-11T09:41:49.364Z,100788.97
2022-12-11T09:44:34.542Z,100786.00
2022-12-11T09:47:02.339Z,100780.84
2022-12-11T09:49:42.632Z,100780.31
2022-12-11T09:52:35.680Z,100779.91
2022-12-11T09:55:25.691Z,100779.44
2022-12-11T09:58:04.076Z,100782.31
2022-12-11T10:01:10.962Z,100774.03
2022-12-11T10:04:00.049Z,100777.84
2022-12-11T10:06:46.852Z,100774.53
2022-12-11T10:09:39.528Z,100770.09
2022-12-11T10:12:21.195Z,100762.25
2022-12-11T10:15:14.730Z,100764.97
2022-12-11T10:17:44.922Z,100753.66
2022-12-11T10:20:50.653Z,100753.66
2022-12-11T10:23:24.670Z,100740.13
2022-12-11T10:26:17.297Z,100745.03
2022-12-11T10:28:47.039Z,100749.78
2022-12-11T10:31:40.465Z,100748.88
2022-12-11T10:34:16.340Z,100744.66
2022-12-11T10:36:44.144Z,100753.44
2022-12-11T10:39:22.622Z,100750.28
2022-12-11T10:41:56.336Z,100759.69
2022-12-11T10:44:25.906Z,100750.75
2022-12-11T10:47:10.825Z,100739.44
2022-12-11T10:49:43.753Z,100742.50
2022-12-11T10:52:37.688Z,100738.88
2022-12-11T10:55:29.001Z,100733.31
2022-12-11T10:58:05.951Z,100735.00
2022-12-11T11:00:37.892Z,100745.00
2022-12-11T11:03:27.278Z,100738.59
2022-12-11T11:06:19.528Z,100734.25
2022-12-11T11:08:56.498Z,100737.72
2022-12-11T11:11:25.876Z,100724.22
2022-12-11T11:14:05.322Z,100723.34
2022-12-11T11:16:37.190Z,100722.50
2022-12-11T11:19:07.444Z,100719.66
2022-12-11T11:21:36.184Z,100723.72
2022-12-11T11:24:04.896Z,100715.66
2022-12-11T11:27:11.158Z,100709.63
2022-12-11T11:29:33.214Z,100704.81
2022-12-11T11:32:17.812Z,100699.25
2022-12-11T11:34:45.031Z,100704.28
2022-12-11T11:37:35.767Z,100699.84
2022-12-11T11:40:13.965Z,100701.41
2022-12-11T11:43:21.033Z,100698.81
2022-12-11T11:46:10.094Z,100706.00
2022-12-11T11:49:00.829Z,100693.16
2022-12-11T11:51:35.262Z,100703.03
2022-12-11T11:54:20.336Z,100693.50
2022-12-11T11:56:50.689Z,100704.66
2022-12-11T11:59:44.259Z,100704.53
2022-12-11T12:02:17.937Z,100704.09
2022-12-11T12:04:51.445Z,100700.94
2022-12-11T12:07:33.749Z,100695.41
2022-12-11T12:10:35.193Z,100707.72
2022-12-11T12:13:48.071Z,100704.22
2022-12-11T12:16:53.119Z,100704.25
2022-12-11T12:20:16.689Z,100714.09
2022-12-11T12:23:03.710Z,100705.47
2022-12-11T12:25:42.825Z,100710.84
2022-12-11T12:29:14.888Z,100710.00
2022-12-11T12:32:25.994Z,100708.19
2022-12-11T12:35:11.561Z,100704.81
2022-12-11T12:37:53.623Z,100701.97
2022-12-11T12:40:55.783Z,100702.88
2022-12-11T12:44:00.544Z,100701.34
2022-12-11T12:46:57.950Z,100695.03
2022-12-11T12:49:48.995Z,100697.72
2022-12-11T12:52:40.761Z,100693.59
2022-12-11T12:55:29.842Z,100692.63
2022-12-11T12:58:04.337Z,100696.63
2022-12-11T13:00:38.200Z,100693.38
2022-12-11T13:03:30.521Z,100697.16
2022-12-11T13:06:06.286Z,100687.56
2022-12-11T13:08:48.208Z,100697.19
2022-12-11T13:11:19.061Z,100696.00
2022-12-11T13:14:18.827Z,100699.97
2022-12-11T13:16:51.065Z,100691.09
2022-12-11T13:19:24.190Z,100698.81
2022-12-11T13:22:02.749Z,100693.50
2022-12-11T13:24:35.501Z,100694.19
2022-12-11T13:27:24.974Z,100690.53
2022-12-11T13:30:04.822Z,100684.66
2022-12-11T13:32:32.654Z,100684.25
2022-12-11T13:35:07.260Z,100683.53
2022-12-11T13:37:40.133Z,100677.00
2022-12-11T13:40:18.002Z,100684.59
2022-12-11T13:42:54.866Z,100678.63
2022-12-11T13:45:31.307Z,100670.63
2022-12-11T13:48:00.251Z,100674.19
2022-12-11T13:50:33.405Z,100674.88
2022-12-11T13:53:02.951Z,100676.66
2022-12-11T13:55:35.454Z,100682.63
2022-12-11T13:58:03.023Z,100686.63
2022-12-11T14:00:34.577Z,100691.31
2022-12-11T14:03:08.614Z,100692.75
2022-12-11T14:05:36.816Z,100712.28
2022-12-11T14:08:11.985Z,100714.19
2022-12-11T14:10:41.805Z,100713.16
2022-12-11T14:13:27.242Z,100717.16
2022-12-11T14:15:55.595Z,100711.16
2022-12-11T14:18:28.116Z,100712.78
2022-12-11T14:20:58.711Z,100714.47
2022-12-11T14:23:30.236Z,100716.09
2022-12-11T14:26:01.904Z,100716.97
2022-12-11T14:28:37.907Z,100712.78
2022-12-11T14:31:06.385Z,100712.88
2022-12-11T14:33:43.479Z,100709.22
2022-12-11T14:36:11.604Z,100715.13
2022-12-11T14:38:47.918Z,100721.28
2022-12-11T14:41:31.569Z,100713.63
2022-12-11T14:44:03.084Z,100717.75
2022-12-11T14:46:46.926Z,100715.66
2022-12-11T14:49:39.139Z,100718.44
2022-12-11T14:52:22.767Z,100716.53
2022-12-11T14:55:07.330Z,100720.50
2022-12-11T14:57:36.344Z,100712.22
2022-12-11T15:00:06.299Z,100722.22
2022-12-11T15:02:36.728Z,100723.09
2022-12-11T15:05:20.418Z,100722.34
2022-12-11T15:08:10.611Z,100716.13
2022-12-11T15:10:43.290Z,100718.59
2022-12-11T15:13:10.948Z,100720.44
2022-12-11T15:15:47.679Z,100713.72
2022-12-11T15:18:28.314Z,100721.50
2022-12-11T15:21:10.376Z,100718.84
2022-12-11T15:23:53.431Z,100713.38
2022-12-11T15:26:59.919Z,100716.19
2022-12-11T15:29:40.205Z,100717.75
2022-12-11T15:32:14.432Z,100714.22
2022-12-11T15:35:24.285Z,100719.09
2022-12-11T15:37:57.560Z,100722.53
2022-12-11T15:40:28.093Z,100716.19
2022-12-11T15:42:56.635Z,100716.19
2022-12-11T15:45:29.238Z,100714.97
2022-12-11T15:47:57.559Z,100718.00
2022-12-11T15:50:31.845Z,100717.88
2022-12-11T15:52:59.116Z,100711.31
2022-12-11T15:55:27.790Z,100716.19
2022-12-11T15:58:00.074Z,100707.66
2022-12-11T16:00:28.345Z,100715.22
2022-12-11T16:02:58.912Z,100716.19
2022-12-11T16:05:27.309Z,100731.75
2022-12-11T16:07:57.138Z,100723.47
2022-12-11T16:10:24.536Z,100727.63
2022-12-11T16:12:51.751Z,100726.91
2022-12-11T16:15:23.418Z,100716.44
2022-12-11T16:18:00.001Z,100713.28
2022-12-11T16:20:27.483Z,100713.63
2022-12-11T16:22:56.750Z,100712.28
2022-12-11T16:25:25.086Z,100710.84
2022-12-11T16:27:55.233Z,100711.56
2022-12-11T16:30:22.898Z,100724.22
2022-12-11T16:32:51.218Z,100719.22
2022-12-11T16:35:19.591Z,100714.69
2022-12-11T16:37:53.334Z,100712.28
2022-12-11T16:40:22.203Z,100717.63
2022-12-11T16:42:49.979Z,100721.66
2022-12-11T16:45:25.486Z,100713.00
2022-12-11T16:47:53.473Z,100720.56
2022-12-11T16:50:20.990Z,100722.75
2022-12-11T16:52:48.192Z,100722.34
2022-12-11T16:55:15.864Z,100718.38
2022-12-11T16:57:43.138Z,100713.38
2022-12-11T17:00:13.940Z,100723.09
2022-12-11T17:02:43.836Z,100720.56
2022-12-11T17:05:11.299Z,100718.84
2022-12-11T17:07:38.643Z,100720.19
2022-12-11T17:10:06.096Z,100720.78
2022-12-11T17:12:33.037Z,100716.66
2022-12-11T17:15:01.166Z,100712.53
2022-12-11T17:17:28.223Z,100718.84
2022-12-11T17:19:57.261Z,100712.88
2022-12-11T17:22:24.175Z,100713.34
2022-12-11T17:24:51.146Z,100718.59
2022-12-11T17:27:18.067Z,100721.91
2022-12-11T17:29:44.976Z,100714.72
2022-12-11T17:32:11.861Z,100721.28
2022-12-11T17:34:41.269Z,100721.28
2022-12-11T17:37:08.235Z,100716.53
2022-12-11T17:39:37.701Z,100714.88
2022-12-11T17:42:07.179Z,100714.78
2022-12-11T17:44:34.566Z,100710.31
2022-12-11T17:47:06.086Z,100720.53
2022-12-11T17:49:36.153Z,100723.34
2022-12-11T17:52:03.491Z,100716.41
2022-12-11T17:54:32.488Z,100721.47
2022-12-11T17:57:00.197Z,100720.97
2022-12-11T17:59:27.037Z,100717.88
2022-12-11T18:01:56.021Z,100718.13
2022-12-11T18:04:22.927Z,100722.72
2022-12-11T18:06:49.793Z,100722.50
2022-12-11T18:09:19.198Z,100721.66
2022-12-11T18:11:46.045Z,100722.25
2022-12-11T18:14:17.068Z,100720.44
2022-12-11T18:16:44.521Z,100725.97
2022-12-11T18:19:11.567Z,100728.81
2022-12-11T18:21:45.706Z,100720.16
2022-12-11T18:24:12.669Z,100713.13
2022-12-11T18:26:40.254Z,100717.84
2022-12-11T18:29:14.159Z,100717.13
2022-12-11T18:31:43.708Z,100715.56
2022-12-11T18:34:11.116Z,100711.06
2022-12-11T18:36:38.171Z,100711.94
2022-12-11T18:39:05.072Z,100704.25
2022-12-11T18:41:34.048Z,100715.22
2022-12-11T18:44:09.276Z,100716.91
2022-12-11T18:46:41.591Z,100709.97
2022-12-11T18:49:11.044Z,100709.13
2022-12-11T18:51:37.887Z,100711.56
2022-12-11T18:54:04.811Z,100711.19
2022-12-11T18:56:34.672Z,100716.06
2022-12-11T18:59:05.113Z,100712.41
2022-12-11T19:01:34.604Z,100709.75
2022-12-11T19:04:06.518Z,100717.28
2022-12-11T19:06:36.305Z,100717.28
2022-12-11T19:09:06.120Z,100727.16
2022-12-11T19:11:34.901Z,100737.22
2022-12-11T19:14:07.269Z,100726.16
2022-12-11T19:16:38.457Z,100725.97
2022-12-11T19:19:20.958Z,100736.44
2022-12-11T19:21:51.503Z,100735.88
2022-12-11T19:24:26.004Z,100732.38
2022-12-11T19:26:52.967Z,100742.59
2022-12-11T19:29:27.306Z,100735.34
2022-12-11T19:31:55.644Z,100738.31
2022-12-11T19:34:25.665Z,100739.84
2022-12-11T19:36:53.637Z,100730.28
2022-12-11T19:39:20.921Z,100732.13
2022-12-11T19:41:48.554Z,100731.41
2022-12-11T19:44:18.288Z,100733.47
2022-12-11T19:46:47.567Z,100736.94
2022-12-11T19:49:17.213Z,100727.84
2022-12-11T19:51:46.643Z,100728.09
2022-12-11T19:54:17.262Z,100736.34
2022-12-11T19:56:45.054Z,100724.44
2022-12-11T19:59:17.806Z,100722.50
2022-12-11T20:01:48.371Z,100727.56
2022-12-11T20:04:17.369Z,100728.81
2022-12-11T20:06:46.261Z,100724.41
2022-12-11T20:09:18.788Z,100723.72
2022-12-11T20:11:46.026Z,100721.88
2022-12-11T20:14:25.422Z,100722.59
2022-12-11T20:17:10.907Z,100722.53
2022-12-11T20:19:41.972Z,100719.94
2022-12-11T20:22:09.470Z,100715.94
2022-12-11T20:24:36.812Z,100713.97
2022-12-11T20:27:03.855Z,100714.72
2022-12-11T20:29:31.076Z,100727.09
2022-12-11T20:31:59.783Z,100715.41
2022-12-11T20:34:30.184Z,100714.97
2022-12-11T20:36:57.130Z,100711.28
2022-12-11T20:39:27.094Z,100715.63
2022-12-11T20:41:54.008Z,100714.22
2022-12-11T20:44:23.967Z,100713.22
2022-12-11T20:46:50.916Z,100713.47
2022-12-11T20:49:22.468Z,100715.59
2022-12-11T20:51:51.863Z,100718.28
2022-12-11T20:54:18.777Z,100710.66
2022-12-11T20:56:45.889Z,100712.00
2022-12-11T20:59:15.054Z,100706.97
2022-12-11T21:01:42.049Z,100716.09
2022-12-11T21:04:12.006Z,100718.16
2022-12-11T21:06:40.627Z,100714.69
2022-12-11T21:09:13.551Z,100719.44
2022-12-11T21:11:40.656Z,100724.41
2022-12-11T21:14:10.226Z,100720.13
2022-12-11T21:16:37.956Z,100727.56
2022-12-11T21:19:06.186Z,100722.94
2022-12-11T21:21:39.709Z,100729.50
2022-12-11T21:24:28.498Z,100725.88
2022-12-11T21:26:58.049Z,100733.63
2022-12-11T21:29:29.270Z,100732.81
2022-12-11T21:31:59.301Z,100727.53
2022-12-11T21:34:33.535Z,100733.88
2022-12-11T21:37:02.456Z,100734.28
2022-12-11T21:39:38.795Z,100730.28
2022-12-11T21:42:06.107Z,100730.03
2022-12-11T21:47:24.672Z,100730.03
2022-12-11T21:49:51.657Z,100726.38
2022-12-11T21:52:18.720Z,100723.06
2022-12-11T21:54:48.491Z,100739.47
2022-12-11T21:57:15.515Z,100734.88
2022-12-11T21:59:42.651Z,100736.34
2022-12-11T22:02:16.149Z,100739.00
2022-12-11T22:04:47.994Z,100738.78
2022-12-11T22:07:16.202Z,100745.59
2022-12-11T22:09:43.327Z,100738.56
2022-12-11T22:12:24.967Z,100750.34
2022-12-11T22:14:52.265Z,100750.72
2022-12-11T22:17:19.435Z,100748.53
2022-12-11T22:19:46.647Z,100744.34
2022-12-11T22:22:15.729Z,100752.09
2022-12-11T22:24:47.816Z,100750.91
2022-12-11T22:27:21.953Z,100748.47
2022-12-11T22:29:50.416Z,100751.78
2022-12-11T22:32:22.248Z,100750.41
2022-12-11T22:34:49.223Z,100744.22
2022-12-11T22:37:16.097Z,100742.38
2022-12-11T22:39:43.011Z,100746.97
2022-12-11T22:42:09.891Z,100736.13
2022-12-11T22:44:42.190Z,100733.59
2022-12-11T22:47:09.049Z,100736.56
2022-12-11T22:49:38.894Z,100742.31
2022-12-11T22:52:10.684Z,100732.69
2022-12-11T22:54:44.207Z,100734.66
2022-12-11T22:57:11.057Z,100733.56
2022-12-11T22:59:40.909Z,100738.75
2022-12-11T23:02:07.916Z,100738.13
2022-12-11T23:04:36.902Z,100743.00
2022-12-11T23:07:06.748Z,100737.28
2022-12-11T23:09:33.972Z,100743.31
2022-12-11T23:12:03.292Z,100738.97
2022-12-11T23:14:30.201Z,100743.13
2022-12-11T23:16:57.139Z,100741.13
2022-12-11T23:19:26.480Z,100743.28
2022-12-11T23:21:53.560Z,100742.28
2022-12-11T23:24:20.808Z,100733.41
2022-12-11T23:26:50.112Z,100736.41
2022-12-11T23:29:19.309Z,100736.47
2022-12-11T23:31:48.975Z,100737.78
2022-12-11T23:34:18.906Z,100742.84
2022-12-11T23:36:45.846Z,100737.09
2022-12-11T23:39:12.729Z,100729.59
2022-12-11T23:41:39.760Z,100741.88
2022-12-11T23:44:06.579Z,100733.75
2022-12-11T23:46:36.111Z,100742.91
2022-12-11T23:49:04.199Z,100737.56
2022-12-11T23:51:31.226Z,100739.44
2022-12-11T23:53:58.149Z,100746.56
2022-12-11T23:56:28.509Z,100745.59
2022-12-11T23:58:58.999Z,100734.25
